Time;durP1;ratioP1;P1;durP2;ratioP2;P2;SDS_P1;SDS_P2;PMS_P1;PMS_P2;Temp;Humidity;BMP_temperature;BMP_pressure;BME280_temperature;BME280_humidity;BME280_pressure;Samples;Min_cycle;Max_cycle;Signal;HPM_P1;HPM_P2
2024/03/25 00:02:17;;;;;;;18.88;3.47;;;5.30;99.90;;;;;;4990000;28;20038;-80
2024/03/25 00:04:42;;;;;;;15.77;3.05;;;5.30;99.90;;;;;;4987029;28;20117;-80
2024/03/25 00:07:08;;;;;;;17.13;3.30;;;5.40;99.90;;;;;;4988840;28;20433;-80
2024/03/25 00:09:34;;;;;;;6.75;1.80;;;5.40;99.90;;;;;;4955966;28;20613;-80
2024/03/25 00:12:00;;;;;;;22.50;3.42;;;5.30;99.90;;;;;;4988135;28;20109;-80
2024/03/25 00:14:26;;;;;;;20.15;4.45;;;5.40;99.90;;;;;;4988741;28;20034;-80
2024/03/25 00:16:51;;;;;;;19.33;2.70;;;5.30;99.90;;;;;;4970018;28;20480;-80
2024/03/25 00:19:17;;;;;;;14.82;3.03;;;5.40;99.90;;;;;;4967940;28;20038;-80
2024/03/25 00:21:42;;;;;;;22.88;6.50;;;5.30;99.90;;;;;;4966469;28;20037;-80
2024/03/25 00:24:08;;;;;;;29.33;5.97;;;5.20;99.90;;;;;;4986962;28;20936;-80
2024/03/25 00:26:33;;;;;;;14.27;3.83;;;5.20;99.90;;;;;;4973370;28;20065;-79
2024/03/25 00:28:59;;;;;;;16.67;5.25;;;5.20;99.90;;;;;;4958725;28;20054;-80
2024/03/25 00:31:25;;;;;;;24.15;7.50;;;5.10;99.90;;;;;;4986431;28;20473;-79
2024/03/25 00:33:50;;;;;;;32.30;9.23;;;5.10;99.90;;;;;;4967211;28;20420;-79
2024/03/25 00:36:16;;;;;;;31.48;10.80;;;5.10;99.90;;;;;;4956331;28;20484;-80
2024/03/25 00:38:41;;;;;;;24.55;7.93;;;5.10;99.90;;;;;;4972966;28;20053;-80
2024/03/25 00:41:07;;;;;;;22.17;5.88;;;5.10;99.90;;;;;;4955819;28;20049;-80
2024/03/25 00:43:33;;;;;;;29.75;7.85;;;5.10;99.90;;;;;;4988631;28;20080;-80
2024/03/25 00:45:58;;;;;;;14.10;4.47;;;5.00;99.90;;;;;;4956090;28;20034;-79
2024/03/25 00:48:24;;;;;;;23.73;7.93;;;5.10;99.90;;;;;;4974588;28;20578;-80
2024/03/25 00:50:49;;;;;;;29.35;8.60;;;5.10;99.90;;;;;;4972666;28;20047;-80
2024/03/25 00:53:15;;;;;;;32.47;12.00;;;5.00;99.90;;;;;;4972480;28;20080;-79
2024/03/25 00:55:41;;;;;;;30.42;9.70;;;4.90;99.90;;;;;;4982958;28;20026;-80
2024/03/25 00:58:06;;;;;;;30.00;11.82;;;4.90;99.90;;;;;;4974154;28;20467;-80
2024/03/25 01:00:32;;;;;;;36.22;12.82;;;4.90;99.90;;;;;;4957579;28;20034;-79
2024/03/25 01:02:57;;;;;;;7.07;4.32;;;4.90;99.90;;;;;;4990020;28;20491;-79
2024/03/25 01:05:23;;;;;;;35.65;13.65;;;4.80;99.90;;;;;;4974594;28;20065;-80
2024/03/25 01:07:48;;;;;;;27.15;12.68;;;4.70;99.90;;;;;;4972477;28;20030;-79
2024/03/25 01:10:15;;;;;;;32.90;10.90;;;4.80;99.90;;;;;;4985985;28;20033;-80
2024/03/25 01:12:41;;;;;;;29.77;9.57;;;4.70;99.90;;;;;;4953302;28;20089;-80
2024/03/25 01:15:07;;;;;;;19.70;8.18;;;4.80;99.90;;;;;;4969252;28;20492;-80
2024/03/25 01:17:33;;;;;;;33.63;11.25;;;4.70;99.90;;;;;;4964894;28;20484;-80
2024/03/25 01:19:58;;;;;;;30.80;10.48;;;4.60;99.90;;;;;;4987476;28;20038;-79
2024/03/25 01:22:24;;;;;;;10.98;3.72;;;4.70;99.90;;;;;;4960641;28;20046;-80
2024/03/25 01:24:49;;;;;;;25.27;8.95;;;4.70;99.90;;;;;;4988584;28;20437;-80
2024/03/25 01:27:15;;;;;;;25.73;6.57;;;4.50;99.90;;;;;;4984999;28;20579;-80
2024/03/25 01:29:40;;;;;;;26.90;7.65;;;4.70;99.90;;;;;;4987461;28;20487;-80
2024/03/25 01:32:06;;;;;;;27.25;7.00;;;4.60;99.90;;;;;;4985779;28;20037;-79
2024/03/25 01:34:32;;;;;;;21.30;7.55;;;4.50;99.90;;;;;;4974444;28;20041;-80
2024/03/25 01:36:57;;;;;;;22.50;6.97;;;4.50;99.90;;;;;;4971230;28;20527;-80
2024/03/25 01:39:24;;;;;;;26.95;5.45;;;4.50;99.90;;;;;;4990224;28;20464;-80
2024/03/25 01:41:49;;;;;;;24.27;5.18;;;4.50;99.90;;;;;;4973294;28;20087;-80
2024/03/25 01:44:15;;;;;;;23.92;5.10;;;4.50;99.90;;;;;;4956683;28;20035;-80
2024/03/25 01:46:42;;;;;;;20.80;4.50;;;4.50;99.90;;;;;;4970000;28;20442;-79
2024/03/25 01:49:08;;;;;;;15.50;4.32;;;4.40;99.90;;;;;;4983304;28;20025;-80
2024/03/25 01:51:34;;;;;;;9.00;3.25;;;4.50;99.90;;;;;;4982033;28;20480;-80
2024/03/25 01:53:59;;;;;;;12.48;2.72;;;4.50;99.90;;;;;;4966693;28;20476;-80
2024/03/25 01:56:25;;;;;;;7.70;2.35;;;4.50;99.90;;;;;;4983250;28;20042;-79
2024/03/25 01:58:50;;;;;;;16.30;4.32;;;4.50;99.90;;;;;;4970721;28;20579;-80
2024/03/25 02:01:16;;;;;;;10.02;2.67;;;4.40;99.90;;;;;;4969827;28;20038;-79
2024/03/25 02:03:42;;;;;;;14.65;3.70;;;4.30;99.90;;;;;;4956643;28;20081;-80
2024/03/25 02:06:12;;;;;;;19.13;2.67;;;4.30;99.90;;;;;;4968887;28;20038;-80
2024/03/25 02:08:42;;;;;;;7.93;2.65;;;4.40;99.90;;;;;;4975019;28;20121;-80
2024/03/25 02:11:08;;;;;;;4.93;1.10;;;4.40;99.90;;;;;;4982372;28;20463;-80
2024/03/25 02:13:37;;;;;;;11.80;3.03;;;4.30;99.90;;;;;;4987203;28;20524;-80
2024/03/25 02:16:03;;;;;;;17.17;2.65;;;4.40;99.90;;;;;;4968533;28;20054;-81
2024/03/25 02:18:30;;;;;;;9.00;2.28;;;4.30;99.90;;;;;;4965446;28;20122;-80
2024/03/25 02:20:56;;;;;;;16.98;3.55;;;4.30;99.90;;;;;;4970537;28;20023;-80
2024/03/25 02:23:21;;;;;;;14.90;3.65;;;4.30;99.90;;;;;;4988273;28;20037;-80
2024/03/25 02:25:50;;;;;;;4.50;2.15;;;4.30;99.90;;;;;;4985859;28;20056;-81
2024/03/25 02:28:16;;;;;;;15.70;3.78;;;4.30;99.90;;;;;;4953865;28;20030;-80
2024/03/25 02:30:42;;;;;;;8.20;2.28;;;4.20;99.90;;;;;;4973772;28;20076;-80
2024/03/25 02:33:07;;;;;;;26.15;4.53;;;4.20;99.90;;;;;;4987120;28;20186;-80
2024/03/25 02:35:33;;;;;;;11.05;2.80;;;4.20;99.90;;;;;;4986769;28;20038;-80
2024/03/25 02:37:58;;;;;;;21.13;3.30;;;4.20;99.90;;;;;;4973083;28;20030;-80
2024/03/25 02:40:24;;;;;;;23.35;4.40;;;4.20;99.90;;;;;;4971517;28;20038;-80
2024/03/25 02:42:49;;;;;;;16.85;3.70;;;4.20;99.90;;;;;;4987983;28;20038;-80
2024/03/25 02:45:15;;;;;;;15.95;2.58;;;4.10;99.90;;;;;;4958186;28;20540;-80
2024/03/25 02:47:41;;;;;;;18.92;3.83;;;4.10;99.90;;;;;;4956697;28;20830;-80
2024/03/25 02:50:07;;;;;;;9.73;2.88;;;4.10;99.90;;;;;;4986470;28;20046;-80
2024/03/25 02:52:32;;;;;;;4.22;2.38;;;4.00;99.90;;;;;;4966713;28;20046;-80
2024/03/25 02:54:58;;;;;;;9.13;3.20;;;3.90;99.90;;;;;;4971088;28;20054;-80
2024/03/25 02:57:23;;;;;;;9.95;1.92;;;4.00;99.90;;;;;;4949864;28;20116;-80
2024/03/25 02:59:49;;;;;;;12.23;4.45;;;4.00;99.90;;;;;;4990507;28;20480;-80
2024/03/25 03:02:14;;;;;;;16.20;3.70;;;4.00;99.90;;;;;;4972896;28;20040;-80
2024/03/25 03:04:40;;;;;;;19.08;5.15;;;3.90;99.90;;;;;;4994452;28;20042;-80
2024/03/25 03:07:06;;;;;;;1.85;0.75;;;3.80;99.90;;;;;;4961664;28;20062;-80
2024/03/25 03:09:31;;;;;;;4.53;2.15;;;3.90;99.90;;;;;;4987561;28;20030;-80
2024/03/25 03:11:57;;;;;;;11.25;4.00;;;3.90;99.90;;;;;;4971573;28;20042;-81
2024/03/25 03:14:22;;;;;;;15.52;2.15;;;3.90;99.90;;;;;;4982180;28;20045;-81
2024/03/25 03:16:49;;;;;;;15.95;4.30;;;4.00;99.90;;;;;;4982591;28;20038;-80
2024/03/25 03:19:14;;;;;;;12.52;3.60;;;3.90;99.90;;;;;;4983166;28;20563;-80
2024/03/25 03:21:40;;;;;;;10.88;3.22;;;3.90;99.90;;;;;;4990651;28;20030;-80
2024/03/25 03:24:05;;;;;;;7.70;2.38;;;3.90;99.90;;;;;;4986121;28;20400;-80
2024/03/25 03:26:31;;;;;;;6.82;3.58;;;3.80;99.90;;;;;;4975643;28;20083;-79
2024/03/25 03:28:57;;;;;;;9.35;2.10;;;3.90;99.90;;;;;;4959290;28;20037;-81
2024/03/25 03:31:23;;;;;;;10.13;3.22;;;3.90;99.90;;;;;;4958251;28;20567;-80
2024/03/25 03:33:49;;;;;;;3.90;1.45;;;3.80;99.90;;;;;;4955941;28;20023;-80
2024/03/25 03:36:18;;;;;;;12.20;4.53;;;3.90;99.90;;;;;;4972163;28;20392;-80
2024/03/25 03:38:43;;;;;;;15.90;3.63;;;3.90;99.90;;;;;;4951951;28;20399;-80
2024/03/25 03:41:09;;;;;;;11.27;3.60;;;3.80;99.90;;;;;;4987621;28;20030;-80
2024/03/25 03:43:34;;;;;;;14.63;3.65;;;3.90;99.90;;;;;;4988206;28;20030;-80
2024/03/25 03:46:00;;;;;;;11.45;4.80;;;3.90;99.90;;;;;;4986910;28;20508;-80
2024/03/25 03:48:25;;;;;;;12.32;4.60;;;3.90;99.90;;;;;;4987196;28;20084;-80
2024/03/25 03:50:51;;;;;;;23.38;5.88;;;4.00;99.90;;;;;;4972722;28;20030;-80
2024/03/25 03:53:17;;;;;;;14.13;4.50;;;4.00;99.90;;;;;;4986493;28;20477;-80
2024/03/25 03:55:53;;;;;;;21.00;5.72;;;3.90;99.90;;;;;;4989859;28;20138;-82
2024/03/25 03:58:19;;;;;;;15.00;4.72;;;4.00;99.90;;;;;;4986479;28;20045;-80
2024/03/25 04:00:44;;;;;;;14.60;5.50;;;4.10;99.90;;;;;;4991860;28;20030;-80
2024/03/25 04:03:12;;;;;;;17.50;4.45;;;3.90;99.90;;;;;;4985446;28;20027;-81
2024/03/25 04:05:37;;;;;;;14.68;5.57;;;3.90;99.90;;;;;;4966539;28;20499;-81
2024/03/25 04:08:03;;;;;;;8.30;2.50;;;3.90;99.90;;;;;;4990378;28;20114;-80
2024/03/25 04:10:29;;;;;;;13.90;4.60;;;3.90;99.90;;;;;;4964142;28;20088;-80
2024/03/25 04:12:55;;;;;;;18.17;5.65;;;4.00;99.90;;;;;;4975104;28;20042;-80
2024/03/25 04:15:22;;;;;;;14.50;4.78;;;4.10;99.90;;;;;;4962830;28;20034;-79
2024/03/25 04:17:49;;;;;;;17.20;5.70;;;4.20;99.90;;;;;;4987932;28;20038;-80
2024/03/25 04:20:14;;;;;;;14.93;4.25;;;4.10;99.90;;;;;;4970407;28;20418;-80
2024/03/25 04:22:43;;;;;;;21.83;4.65;;;4.20;99.90;;;;;;4967088;28;20038;-80
2024/03/25 04:25:14;;;;;;;18.75;4.93;;;4.10;99.90;;;;;;4964580;28;20104;-81
2024/03/25 04:27:40;;;;;;;8.23;3.40;;;4.20;99.90;;;;;;4976738;28;20117;-80
2024/03/25 04:30:07;;;;;;;19.30;4.63;;;4.20;99.90;;;;;;4987832;28;20106;-80
2024/03/25 04:32:33;;;;;;;16.92;5.20;;;4.30;99.90;;;;;;4983844;28;20034;-80
2024/03/25 04:34:58;;;;;;;17.98;5.20;;;4.20;99.90;;;;;;4970527;28;20046;-81
2024/03/25 04:37:24;;;;;;;19.88;5.15;;;4.10;99.90;;;;;;4952093;28;20035;-80
2024/03/25 04:39:49;;;;;;;18.08;3.58;;;4.10;99.90;;;;;;4973168;28;20038;-80
2024/03/25 04:42:15;;;;;;;11.82;3.35;;;4.10;99.90;;;;;;4987375;28;20061;-80
2024/03/25 04:44:40;;;;;;;14.48;4.07;;;4.10;99.90;;;;;;4984685;28;20030;-80
2024/03/25 04:47:06;;;;;;;12.85;5.07;;;4.10;99.90;;;;;;4998515;28;20026;-80
2024/03/25 04:49:32;;;;;;;19.35;4.57;;;4.10;99.90;;;;;;5000827;28;20567;-80
2024/03/25 04:51:57;;;;;;;23.70;5.78;;;4.10;99.90;;;;;;4959721;28;20408;-80
2024/03/25 04:54:23;;;;;;;13.57;4.60;;;4.20;99.90;;;;;;4997910;28;20030;-80
2024/03/25 04:56:49;;;;;;;17.98;5.22;;;4.30;99.90;;;;;;5009812;28;20105;-80
2024/03/25 04:59:14;;;;;;;13.25;4.40;;;4.20;99.90;;;;;;5007140;28;20058;-80
2024/03/25 05:01:40;;;;;;;17.73;5.32;;;4.10;99.90;;;;;;5011371;28;20025;-80
2024/03/25 05:04:09;;;;;;;18.70;6.32;;;4.00;99.90;;;;;;5007336;28;20435;-80
2024/03/25 05:06:34;;;;;;;22.23;5.35;;;4.10;99.90;;;;;;5001762;28;20499;-80
2024/03/25 05:09:00;;;;;;;12.63;5.07;;;4.00;99.90;;;;;;4971878;28;20065;-80
2024/03/25 05:11:25;;;;;;;15.63;5.53;;;3.90;99.90;;;;;;4976272;28;20428;-81
2024/03/25 05:13:51;;;;;;;19.83;6.40;;;4.00;99.90;;;;;;4967297;28;20104;-80
2024/03/25 05:16:16;;;;;;;9.43;4.43;;;4.00;99.90;;;;;;4990161;28;20026;-79
2024/03/25 05:18:42;;;;;;;21.33;5.20;;;4.00;99.90;;;;;;4987971;28;20023;-80
2024/03/25 05:21:07;;;;;;;14.98;4.70;;;3.90;99.90;;;;;;4981669;28;20022;-79
2024/03/25 05:23:34;;;;;;;23.23;6.68;;;3.90;99.90;;;;;;4986983;28;20030;-79
2024/03/25 05:26:00;;;;;;;10.60;3.03;;;3.90;99.90;;;;;;4984777;28;20042;-80
2024/03/25 05:28:25;;;;;;;15.95;4.32;;;3.90;99.90;;;;;;4969824;28;20068;-80
2024/03/25 05:30:51;;;;;;;15.68;5.15;;;3.80;99.90;;;;;;4990100;28;20041;-79
2024/03/25 05:33:16;;;;;;;11.35;2.95;;;3.90;99.90;;;;;;4984064;28;20034;-79
2024/03/25 05:35:42;;;;;;;17.63;5.15;;;3.80;99.90;;;;;;4984970;28;20045;-80
2024/03/25 05:38:07;;;;;;;9.73;3.17;;;3.70;99.90;;;;;;4988425;28;20034;-78
2024/03/25 05:40:33;;;;;;;22.27;4.78;;;3.70;99.90;;;;;;4986816;28;20489;-79
2024/03/25 05:42:58;;;;;;;16.65;4.68;;;3.60;99.90;;;;;;4983739;28;20044;-79
2024/03/25 05:45:24;;;;;;;18.48;5.22;;;3.60;99.90;;;;;;4985191;28;20034;-79
2024/03/25 05:47:53;;;;;;;13.88;4.30;;;3.60;99.90;;;;;;4985859;28;20034;-79
2024/03/25 05:50:18;;;;;;;9.85;1.80;;;3.60;99.90;;;;;;4986089;28;20492;-80
2024/03/25 05:52:44;;;;;;;21.38;6.15;;;3.60;99.90;;;;;;4984191;28;20045;-79
2024/03/25 05:55:12;;;;;;;13.25;4.20;;;3.60;99.90;;;;;;4985782;28;20033;-79
2024/03/25 05:57:38;;;;;;;11.98;3.55;;;3.70;99.90;;;;;;4957694;28;20027;-79
2024/03/25 06:00:03;;;;;;;17.90;5.43;;;3.70;99.90;;;;;;4957360;28;20511;-79
2024/03/25 06:02:30;;;;;;;11.90;4.60;;;3.70;99.90;;;;;;4986296;28;20043;-80
2024/03/25 06:04:56;;;;;;;16.40;4.80;;;3.70;99.90;;;;;;4956038;28;20038;-79
2024/03/25 06:07:22;;;;;;;18.00;4.88;;;3.70;99.90;;;;;;4983642;28;20039;-79
2024/03/25 06:09:47;;;;;;;13.75;4.22;;;3.70;99.90;;;;;;4987812;28;20084;-80
2024/03/25 06:12:13;;;;;;;27.02;6.20;;;3.70;99.90;;;;;;4968521;28;20118;-79
2024/03/25 06:14:39;;;;;;;23.83;5.65;;;3.80;99.90;;;;;;4972519;28;20079;-79
2024/03/25 06:17:04;;;;;;;21.42;4.95;;;3.90;99.90;;;;;;4986282;28;20079;-80
2024/03/25 06:19:30;;;;;;;11.98;4.55;;;3.90;99.90;;;;;;4940544;28;20046;-80
2024/03/25 06:21:55;;;;;;;13.27;5.05;;;3.90;99.90;;;;;;4968587;28;20031;-80
2024/03/25 06:24:21;;;;;;;23.95;6.20;;;3.90;99.90;;;;;;4983990;28;20034;-80
2024/03/25 06:26:48;;;;;;;19.25;5.72;;;4.00;99.90;;;;;;4985791;28;20030;-80
2024/03/25 06:29:14;;;;;;;14.48;5.35;;;4.00;99.90;;;;;;4953522;28;20051;-80
2024/03/25 06:34:25;;;;;;;14.70;5.20;;;4.10;99.90;;;;;;5008937;28;20068;-79
2024/03/25 06:36:51;;;;;;;11.65;4.70;;;4.20;99.90;;;;;;5006956;28;20062;-80
2024/03/25 06:39:17;;;;;;;12.50;4.57;;;4.10;99.90;;;;;;5006554;28;20446;-80
2024/03/25 06:41:42;;;;;;;10.80;3.10;;;4.10;99.90;;;;;;4989053;28;20423;-80
2024/03/25 06:44:14;;;;;;;16.25;5.85;;;4.10;99.90;;;;;;4988822;28;20053;-80
2024/03/25 06:46:39;;;;;;;22.75;6.13;;;4.20;99.90;;;;;;5006756;28;20026;-79
2024/03/25 06:49:05;;;;;;;19.77;5.40;;;4.30;99.90;;;;;;4989762;28;20065;-80
2024/03/25 06:51:30;;;;;;;16.73;4.30;;;4.40;99.90;;;;;;5005128;28;20867;-80
2024/03/25 06:53:56;;;;;;;15.35;5.40;;;4.40;99.90;;;;;;4984905;28;20399;-80
2024/03/25 06:56:21;;;;;;;22.40;5.18;;;4.40;99.90;;;;;;5004252;28;20381;-81
2024/03/25 06:58:47;;;;;;;24.73;4.68;;;4.40;99.90;;;;;;4973859;28;20031;-80
2024/03/25 07:01:14;;;;;;;11.43;4.38;;;4.50;99.90;;;;;;4967714;28;20117;-80
2024/03/25 07:03:41;;;;;;;17.10;5.15;;;4.50;99.90;;;;;;4981619;28;20019;-80
2024/03/25 07:06:07;;;;;;;8.10;2.75;;;4.50;99.90;;;;;;4969973;28;20492;-80
2024/03/25 07:08:33;;;;;;;18.30;4.20;;;4.50;99.90;;;;;;4966612;28;20046;-80
2024/03/25 07:10:59;;;;;;;13.75;4.97;;;4.50;99.90;;;;;;4966724;28;20038;-80
2024/03/25 07:13:25;;;;;;;23.00;5.35;;;4.60;99.90;;;;;;4984304;28;20065;-80
2024/03/25 07:15:50;;;;;;;21.27;5.47;;;4.60;99.90;;;;;;4968153;28;20148;-81
2024/03/25 07:18:16;;;;;;;14.25;4.97;;;4.70;99.90;;;;;;4967925;28;20133;-81
2024/03/25 07:20:42;;;;;;;15.10;4.28;;;4.70;99.90;;;;;;4970035;28;20496;-80
2024/03/25 07:23:08;;;;;;;17.17;4.40;;;4.80;99.90;;;;;;4992936;28;20710;-79
2024/03/25 07:25:33;;;;;;;25.98;6.13;;;4.80;99.90;;;;;;4976662;28;20034;-80
2024/03/25 07:27:59;;;;;;;6.22;1.38;;;4.80;99.90;;;;;;4954009;28;20042;-78
2024/03/25 07:30:28;;;;;;;6.95;2.53;;;4.90;99.90;;;;;;4987231;28;20040;-79
2024/03/25 07:32:56;;;;;;;17.55;4.78;;;5.10;99.90;;;;;;4969906;28;20575;-79
2024/03/25 07:35:23;;;;;;;11.98;3.35;;;5.10;99.90;;;;;;4976110;28;20044;-78
2024/03/25 07:37:51;;;;;;;16.63;5.30;;;5.30;99.90;;;;;;4978870;28;20068;-78
2024/03/25 07:40:20;;;;;;;15.88;5.13;;;5.20;99.90;;;;;;4974834;28;20112;-78
2024/03/25 07:42:46;;;;;;;14.45;4.00;;;5.40;99.90;;;;;;4986019;28;20555;-78
2024/03/25 07:45:12;;;;;;;13.18;3.20;;;5.40;99.90;;;;;;4987126;28;20069;-79
2024/03/25 07:47:37;;;;;;;10.25;4.32;;;5.60;99.90;;;;;;4982247;28;20228;-78
2024/03/25 07:50:03;;;;;;;13.82;4.20;;;5.60;99.90;;;;;;4972290;28;20064;-79
2024/03/25 07:52:29;;;;;;;18.17;5.35;;;5.70;99.90;;;;;;4970698;28;20045;-78
2024/03/25 07:54:54;;;;;;;18.27;4.93;;;5.90;99.90;;;;;;4988672;28;20027;-78
2024/03/25 07:57:20;;;;;;;17.98;5.47;;;5.90;99.90;;;;;;4987035;28;20404;-78
2024/03/25 07:59:48;;;;;;;16.20;4.57;;;6.00;99.90;;;;;;4986038;28;20077;-78
2024/03/25 08:02:14;;;;;;;13.90;3.13;;;6.10;99.90;;;;;;4987925;28;20061;-79
2024/03/25 08:04:39;;;;;;;19.08;5.53;;;6.30;99.90;;;;;;4989374;28;20187;-79
2024/03/25 08:07:05;;;;;;;15.25;4.18;;;6.40;99.90;;;;;;4984108;28;20030;-79
2024/03/25 08:09:30;;;;;;;9.23;2.42;;;6.60;99.90;;;;;;4990212;28;20043;-79
2024/03/25 08:11:56;;;;;;;16.77;4.07;;;6.60;99.90;;;;;;4986745;28;20068;-79
2024/03/25 08:14:22;;;;;;;14.95;3.45;;;6.60;99.90;;;;;;4971967;28;20030;-79
2024/03/25 08:16:49;;;;;;;10.10;4.13;;;6.70;99.90;;;;;;4983084;28;20037;-79
2024/03/25 08:19:14;;;;;;;17.10;4.43;;;6.80;99.90;;;;;;4992118;28;20041;-80
2024/03/25 08:21:40;;;;;;;12.88;5.00;;;7.10;99.90;;;;;;4983813;28;20039;-79
2024/03/25 08:24:05;;;;;;;21.95;4.82;;;7.30;99.90;;;;;;4966896;28;20065;-80
2024/03/25 08:26:31;;;;;;;18.35;4.53;;;7.70;99.90;;;;;;4984733;28;20065;-80
2024/03/25 08:28:57;;;;;;;17.50;4.45;;;7.80;99.90;;;;;;4967146;28;20370;-79
2024/03/25 08:31:22;;;;;;;10.10;3.88;;;8.10;99.90;;;;;;4970472;28;20026;-79
2024/03/25 08:33:48;;;;;;;26.75;4.43;;;8.00;99.90;;;;;;4987794;28;20114;-80
2024/03/25 08:36:14;;;;;;;12.68;3.15;;;8.30;99.90;;;;;;4980309;28;20121;-80
2024/03/25 08:38:40;;;;;;;10.95;3.60;;;8.60;99.90;;;;;;4972177;28;20043;-81
2024/03/25 08:41:05;;;;;;;15.35;3.80;;;8.70;99.90;;;;;;4980198;28;20033;-82
2024/03/25 08:43:32;;;;;;;14.68;3.83;;;9.20;99.90;;;;;;4966232;28;20664;-83
2024/03/25 08:45:58;;;;;;;14.52;2.60;;;8.90;99.90;;;;;;4984229;28;20113;-83
2024/03/25 08:48:23;;;;;;;20.48;3.75;;;9.00;99.90;;;;;;4970371;28;20400;-82
2024/03/25 08:50:49;;;;;;;14.95;3.72;;;9.10;99.90;;;;;;4961767;28;20089;-83
2024/03/25 08:53:18;;;;;;;9.05;2.25;;;9.10;99.90;;;;;;4986471;28;20039;-82
2024/03/25 08:55:45;;;;;;;13.40;3.30;;;9.50;99.90;;;;;;4989387;28;20143;-81
2024/03/25 08:58:12;;;;;;;15.70;3.40;;;9.90;99.90;;;;;;4966177;28;20030;-82
2024/03/25 09:00:37;;;;;;;12.60;2.92;;;10.20;99.90;;;;;;4986446;28;20030;-81
2024/03/25 09:03:04;;;;;;;15.88;4.07;;;10.30;99.90;;;;;;4985040;28;20037;-83
2024/03/25 09:05:30;;;;;;;15.05;3.70;;;10.70;99.90;;;;;;4986184;28;20069;-81
2024/03/25 09:07:55;;;;;;;13.63;3.15;;;11.00;99.90;;;;;;4990157;28;20534;-81
2024/03/25 09:13:05;;;;;;;14.10;2.90;;;11.60;99.90;;;;;;4983529;28;20459;-81
2024/03/25 09:15:31;;;;;;;12.95;3.05;;;11.80;99.90;;;;;;4969219;28;20034;-81
2024/03/25 09:17:56;;;;;;;9.70;2.70;;;12.00;99.90;;;;;;4968075;28;20070;-81
2024/03/25 09:20:26;;;;;;;11.45;2.35;;;11.80;99.90;;;;;;4986106;28;20034;-82
2024/03/25 09:22:58;;;;;;;14.52;3.47;;;11.70;99.90;;;;;;4966295;28;20030;-81
2024/03/25 09:25:24;;;;;;;11.98;2.55;;;12.00;99.90;;;;;;4966751;28;20033;-81
2024/03/25 09:27:50;;;;;;;9.18;2.17;;;11.90;99.90;;;;;;4979996;28;21109;-81
2024/03/25 09:30:16;;;;;;;12.15;2.20;;;12.10;99.90;;;;;;4983866;28;20053;-81
2024/03/25 09:32:42;;;;;;;7.72;2.55;;;12.30;99.90;;;;;;4976862;28;20031;-81
2024/03/25 09:35:08;;;;;;;19.23;2.38;;;12.30;99.90;;;;;;4985174;28;20030;-81
2024/03/25 09:37:34;;;;;;;7.70;2.25;;;12.60;99.90;;;;;;4987822;28;20046;-81
2024/03/25 09:39:59;;;;;;;7.78;2.03;;;12.70;99.90;;;;;;4970461;28;20022;-81
2024/03/25 09:42:52;;;;;;;11.00;2.97;;;12.60;99.90;;;;;;4970190;28;20085;-81
2024/03/25 09:45:18;;;;;;;10.70;2.22;;;12.90;99.90;;;;;;4986369;28;20133;-81
2024/03/25 09:47:47;;;;;;;7.80;1.30;;;12.90;99.90;;;;;;4986214;28;20109;-80
2024/03/25 09:50:19;;;;;;;9.68;1.92;;;12.90;99.90;;;;;;4986362;28;20038;-81
2024/03/25 09:52:45;;;;;;;8.65;2.20;;;12.80;99.90;;;;;;4984178;28;20038;-81
2024/03/25 09:55:17;;;;;;;9.05;2.03;;;12.90;99.90;;;;;;4990472;28;20399;-81
2024/03/25 09:57:43;;;;;;;16.10;2.63;;;13.10;99.90;;;;;;4973754;28;20033;-82
2024/03/25 10:00:10;;;;;;;12.10;2.25;;;13.00;99.90;;;;;;4984283;28;20031;-81
2024/03/25 10:02:39;;;;;;;13.13;2.10;;;13.20;99.90;;;;;;4988056;28;20054;-81
2024/03/25 10:05:08;;;;;;;8.05;2.80;;;13.30;99.90;;;;;;4987067;28;20044;-81
2024/03/25 10:07:34;;;;;;;9.82;1.67;;;13.60;99.90;;;;;;4991830;28;20045;-81
2024/03/25 10:09:59;;;;;;;8.38;1.65;;;13.40;99.90;;;;;;4975007;28;20036;-81
2024/03/25 10:12:25;;;;;;;8.57;3.17;;;13.70;99.90;;;;;;4992871;28;20033;-81
2024/03/25 10:14:51;;;;;;;10.13;1.77;;;13.70;99.90;;;;;;5008139;28;20030;-82
2024/03/25 10:17:16;;;;;;;7.60;2.47;;;13.40;99.90;;;;;;5002857;28;20092;-81
2024/03/25 10:19:42;;;;;;;10.30;2.75;;;13.20;99.90;;;;;;5008524;28;20491;-81
2024/03/25 10:22:08;;;;;;;5.65;1.50;;;13.20;99.90;;;;;;4992676;28;20029;-81
2024/03/25 10:24:42;;;;;;;5.53;1.77;;;13.30;99.90;;;;;;4992026;28;20037;-79
2024/03/25 10:27:23;;;;;;;7.40;2.33;;;13.30;99.90;;;;;;5002829;28;20037;-80
2024/03/25 10:29:51;;;;;;;7.50;2.13;;;13.10;99.90;;;;;;5001893;28;20520;-80
2024/03/25 10:32:19;;;;;;;12.20;2.50;;;13.30;99.90;;;;;;4995523;28;20032;-80
2024/03/25 10:34:45;;;;;;;7.88;1.98;;;13.00;99.90;;;;;;5008103;28;20064;-80
2024/03/25 10:37:11;;;;;;;10.55;1.65;;;13.00;99.90;;;;;;5006191;28;20026;-80
2024/03/25 10:39:42;;;;;;;7.15;2.13;;;13.50;99.90;;;;;;5006633;28;20030;-80
2024/03/25 10:42:10;;;;;;;10.88;2.22;;;13.60;99.90;;;;;;4992270;28;20088;-82
2024/03/25 10:44:36;;;;;;;6.78;1.80;;;13.70;99.90;;;;;;4972111;28;20053;-80
2024/03/25 10:47:06;;;;;;;9.50;2.40;;;13.60;99.90;;;;;;5003844;28;20460;-80
2024/03/25 10:49:43;;;;;;;9.82;2.28;;;13.60;99.90;;;;;;4989807;28;20058;-80
2024/03/25 10:52:09;;;;;;;9.98;2.15;;;13.40;99.90;;;;;;4964844;28;20050;-80
2024/03/25 10:54:34;;;;;;;9.85;1.83;;;13.20;99.90;;;;;;4954096;28;20033;-80
2024/03/25 10:57:00;;;;;;;4.80;1.75;;;13.30;99.90;;;;;;4976030;28;20057;-80
2024/03/25 10:59:29;;;;;;;5.32;2.10;;;13.40;99.90;;;;;;4971445;28;20085;-80
2024/03/25 11:01:54;;;;;;;9.15;2.50;;;13.70;99.90;;;;;;4978202;28;20034;-81
2024/03/25 11:04:20;;;;;;;5.43;1.40;;;13.60;99.90;;;;;;4986093;28;20039;-80
2024/03/25 11:06:46;;;;;;;5.45;1.75;;;13.80;99.90;;;;;;4972364;28;20030;-80
2024/03/25 11:09:27;;;;;;;7.07;1.63;;;13.70;99.90;;;;;;4956142;28;20114;-80
2024/03/25 11:11:53;;;;;;;11.30;2.25;;;14.30;99.90;;;;;;4999011;28;20034;-81
2024/03/25 11:14:18;;;;;;;7.05;2.05;;;14.30;99.90;;;;;;4968935;28;20034;-81
2024/03/25 11:16:54;;;;;;;6.20;1.52;;;13.90;99.90;;;;;;4990656;28;20502;-81
2024/03/25 11:19:20;;;;;;;10.37;1.80;;;13.80;99.90;;;;;;4968929;28;20061;-80
2024/03/25 11:21:46;;;;;;;8.77;1.60;;;14.30;99.90;;;;;;4982971;28;20061;-80
2024/03/25 11:24:12;;;;;;;8.02;1.67;;;14.40;99.90;;;;;;4973578;28;20034;-80
2024/03/25 11:26:43;;;;;;;11.52;1.80;;;15.00;99.90;;;;;;4974912;28;20066;-81
2024/03/25 11:29:09;;;;;;;4.78;1.77;;;15.10;99.90;;;;;;4987035;28;20037;-81
2024/03/25 11:31:35;;;;;;;4.97;1.70;;;16.00;99.90;;;;;;4968904;28;20026;-81
2024/03/25 11:34:08;;;;;;;5.82;1.92;;;16.00;99.90;;;;;;4981372;28;20089;-79
2024/03/25 11:36:33;;;;;;;9.82;1.95;;;15.40;99.90;;;;;;4970662;28;20033;-79
2024/03/25 11:39:12;;;;;;;7.38;1.67;;;15.20;99.90;;;;;;5007664;28;20390;-80
2024/03/25 11:41:41;;;;;;;5.93;1.58;;;15.20;99.90;;;;;;4975287;28;20081;-79
2024/03/25 11:44:09;;;;;;;6.88;1.63;;;15.60;99.90;;;;;;4988734;28;20030;-79
2024/03/25 11:46:39;;;;;;;9.55;1.85;;;15.10;99.90;;;;;;4981874;28;20477;-79
2024/03/25 11:49:15;;;;;;;4.70;1.25;;;15.00;99.90;;;;;;4986805;28;20089;-79
2024/03/25 11:51:41;;;;;;;4.22;1.33;;;15.40;99.90;;;;;;4986466;28;20080;-79
2024/03/25 11:54:12;;;;;;;5.72;1.23;;;16.30;99.90;;;;;;4985978;28;20054;-79
2024/03/25 11:56:37;;;;;;;7.30;1.40;;;16.20;99.90;;;;;;4975813;28;20093;-79
2024/03/25 11:59:03;;;;;;;6.82;1.30;;;16.10;99.90;;;;;;4972954;28;20045;-80
2024/03/25 12:01:29;;;;;;;7.13;1.30;;;16.50;99.90;;;;;;4968706;28;20042;-80
2024/03/25 12:03:56;;;;;;;8.63;1.33;;;16.30;99.90;;;;;;4985932;28;20072;-80
2024/03/25 12:06:23;;;;;;;3.45;1.65;;;16.00;99.90;;;;;;4968102;28;20050;-80
2024/03/25 12:11:32;;;;;;;7.60;1.42;;;15.30;99.90;;;;;;4971746;28;20045;-80
2024/03/25 12:13:58;;;;;;;7.32;1.58;;;15.40;99.90;;;;;;4984479;28;20488;-80
2024/03/25 12:16:24;;;;;;;5.28;1.80;;;15.20;99.90;;;;;;4983120;28;20042;-80
2024/03/25 12:18:50;;;;;;;11.65;2.05;;;15.10;99.90;;;;;;4954521;28;20484;-79
2024/03/25 12:21:15;;;;;;;5.30;1.23;;;15.40;99.90;;;;;;4959299;28;20408;-80
2024/03/25 12:23:42;;;;;;;5.80;1.40;;;15.80;99.90;;;;;;4987038;28;20117;-80
2024/03/25 12:26:08;;;;;;;9.02;1.60;;;15.90;99.90;;;;;;4986332;28;20064;-80
2024/03/25 12:28:37;;;;;;;7.80;1.58;;;16.80;99.90;;;;;;4969966;28;20038;-80
2024/03/25 12:31:07;;;;;;;7.47;1.00;;;17.10;99.90;;;;;;4989266;28;20056;-80
2024/03/25 12:33:51;;;;;;;4.93;1.25;;;17.40;99.90;;;;;;4977395;28;20030;-80
2024/03/25 12:36:16;;;;;;;4.45;1.55;;;17.70;99.90;;;;;;4958612;28;20124;-80
2024/03/25 12:38:42;;;;;;;3.65;1.17;;;17.30;99.90;;;;;;4978646;28;20026;-80
2024/03/25 12:41:09;;;;;;;3.88;1.48;;;17.30;99.90;;;;;;4972175;28;20570;-79
2024/03/25 12:43:37;;;;;;;3.78;0.93;;;17.30;99.90;;;;;;4984730;28;20073;-80
2024/03/25 12:46:03;;;;;;;4.00;1.42;;;17.50;99.90;;;;;;4982669;28;20038;-80
2024/03/25 12:48:29;;;;;;;8.10;1.70;;;17.30;99.90;;;;;;4954933;28;20041;-80
2024/03/25 12:50:55;;;;;;;5.38;1.48;;;16.70;99.90;;;;;;4965792;28;20461;-79